sensor_id;sensor_type;location;lat;lon;timestamp;P1;durP1;ratioP1;P2;durP2;ratioP2
80508;SDS011;69838;52.602;13.434;2024-03-08T00:00:16;48.28;;;26.67;;
80508;SDS011;69838;52.602;13.434;2024-03-08T00:01:04;49.17;;;27.02;;
80508;SDS011;69838;52.602;13.434;2024-03-08T00:01:49;62.20;;;31.58;;
80508;SDS011;69838;52.602;13.434;2024-03-08T00:02:35;66.45;;;33.85;;
80508;SDS011;69838;52.602;13.434;2024-03-08T00:03:22;57.30;;;29.23;;
80508;SDS011;69838;52.602;13.434;2024-03-08T00:04:08;66.25;;;35.70;;
80508;SDS011;69838;52.602;13.434;2024-03-08T00:04:54;63.55;;;35.10;;
80508;SDS011;69838;52.602;13.434;2024-03-08T00:05:39;54.83;;;28.77;;
80508;SDS011;69838;52.602;13.434;2024-03-08T00:06:25;53.03;;;31.10;;
80508;SDS011;69838;52.602;13.434;2024-03-08T00:07:11;53.55;;;26.23;;
80508;SDS011;69838;52.602;13.434;2024-03-08T00:07:58;48.78;;;26.60;;
80508;SDS011;69838;52.602;13.434;2024-03-08T00:08:45;45.47;;;24.73;;
80508;SDS011;69838;52.602;13.434;2024-03-08T00:09:31;50.55;;;24.13;;
80508;SDS011;69838;52.602;13.434;2024-03-08T00:10:16;44.80;;;24.58;;
80508;SDS011;69838;52.602;13.434;2024-03-08T00:11:02;41.67;;;24.70;;
80508;SDS011;69838;52.602;13.434;2024-03-08T00:11:48;45.97;;;24.33;;
80508;SDS011;69838;52.602;13.434;2024-03-08T00:12:35;42.33;;;22.88;;
80508;SDS011;69838;52.602;13.434;2024-03-08T00:13:20;47.50;;;24.35;;
80508;SDS011;69838;52.602;13.434;2024-03-08T00:14:07;47.45;;;25.35;;
80508;SDS011;69838;52.602;13.434;2024-03-08T00:14:54;54.33;;;28.00;;
80508;SDS011;69838;52.602;13.434;2024-03-08T00:15:39;46.42;;;26.25;;
80508;SDS011;69838;52.602;13.434;2024-03-08T00:16:26;47.08;;;26.08;;
80508;SDS011;69838;52.602;13.434;2024-03-08T00:17:12;51.25;;;28.92;;
80508;SDS011;69838;52.602;13.434;2024-03-08T00:17:58;62.47;;;32.95;;
80508;SDS011;69838;52.602;13.434;2024-03-08T00:18:44;70.35;;;37.13;;
80508;SDS011;69838;52.602;13.434;2024-03-08T00:19:29;52.03;;;28.80;;
80508;SDS011;69838;52.602;13.434;2024-03-08T00:20:15;86.18;;;42.50;;
80508;SDS011;69838;52.602;13.434;2024-03-08T00:21:03;93.22;;;44.58;;
80508;SDS011;69838;52.602;13.434;2024-03-08T00:21:49;67.60;;;35.38;;
80508;SDS011;69838;52.602;13.434;2024-03-08T00:22:35;55.83;;;29.95;;
80508;SDS011;69838;52.602;13.434;2024-03-08T00:23:21;65.55;;;32.45;;
80508;SDS011;69838;52.602;13.434;2024-03-08T00:24:08;69.30;;;34.47;;
80508;SDS011;69838;52.602;13.434;2024-03-08T00:24:54;69.07;;;34.20;;
80508;SDS011;69838;52.602;13.434;2024-03-08T00:25:40;67.40;;;31.77;;
80508;SDS011;69838;52.602;13.434;2024-03-08T00:26:27;53.60;;;27.08;;
80508;SDS011;69838;52.602;13.434;2024-03-08T00:27:13;58.72;;;29.45;;
80508;SDS011;69838;52.602;13.434;2024-03-08T00:28:00;44.53;;;25.58;;
80508;SDS011;69838;52.602;13.434;2024-03-08T00:28:47;44.42;;;24.58;;
80508;SDS011;69838;52.602;13.434;2024-03-08T00:29:33;43.53;;;22.58;;
80508;SDS011;69838;52.602;13.434;2024-03-08T00:30:20;42.13;;;24.10;;
80508;SDS011;69838;52.602;13.434;2024-03-08T00:31:07;41.72;;;22.85;;
80508;SDS011;69838;52.602;13.434;2024-03-08T00:31:53;41.00;;;23.75;;
80508;SDS011;69838;52.602;13.434;2024-03-08T00:32:38;41.25;;;21.88;;
80508;SDS011;69838;52.602;13.434;2024-03-08T00:33:25;41.83;;;22.25;;
80508;SDS011;69838;52.602;13.434;2024-03-08T00:34:10;42.05;;;22.75;;
80508;SDS011;69838;52.602;13.434;2024-03-08T00:34:57;37.40;;;19.80;;
80508;SDS011;69838;52.602;13.434;2024-03-08T00:35:43;36.25;;;19.75;;
80508;SDS011;69838;52.602;13.434;2024-03-08T00:36:28;41.00;;;21.48;;
80508;SDS011;69838;52.602;13.434;2024-03-08T00:37:15;37.45;;;20.08;;
80508;SDS011;69838;52.602;13.434;2024-03-08T00:38:01;35.45;;;19.88;;
80508;SDS011;69838;52.602;13.434;2024-03-08T00:38:47;37.08;;;18.65;;
80508;SDS011;69838;52.602;13.434;2024-03-08T00:39:32;35.13;;;19.40;;
80508;SDS011;69838;52.602;13.434;2024-03-08T00:40:19;37.70;;;20.33;;
80508;SDS011;69838;52.602;13.434;2024-03-08T00:41:04;38.25;;;20.75;;
80508;SDS011;69838;52.602;13.434;2024-03-08T00:41:50;40.05;;;19.73;;
80508;SDS011;69838;52.602;13.434;2024-03-08T00:42:36;35.22;;;20.25;;
80508;SDS011;69838;52.602;13.434;2024-03-08T00:43:23;36.10;;;18.70;;
80508;SDS011;69838;52.602;13.434;2024-03-08T00:44:09;37.08;;;19.63;;
80508;SDS011;69838;52.602;13.434;2024-03-08T00:44:55;36.13;;;18.80;;
80508;SDS011;69838;52.602;13.434;2024-03-08T00:45:43;35.88;;;18.25;;
80508;SDS011;69838;52.602;13.434;2024-03-08T00:46:29;34.22;;;17.55;;
80508;SDS011;69838;52.602;13.434;2024-03-08T00:47:16;34.40;;;19.45;;
80508;SDS011;69838;52.602;13.434;2024-03-08T00:48:02;36.75;;;18.90;;
80508;SDS011;69838;52.602;13.434;2024-03-08T00:48:48;36.10;;;20.08;;
80508;SDS011;69838;52.602;13.434;2024-03-08T00:49:34;35.95;;;19.15;;
80508;SDS011;69838;52.602;13.434;2024-03-08T00:50:21;39.85;;;20.40;;
80508;SDS011;69838;52.602;13.434;2024-03-08T00:51:07;35.40;;;19.27;;
80508;SDS011;69838;52.602;13.434;2024-03-08T00:51:53;38.50;;;19.10;;
80508;SDS011;69838;52.602;13.434;2024-03-08T00:52:39;33.78;;;17.85;;
80508;SDS011;69838;52.602;13.434;2024-03-08T00:53:24;35.78;;;19.63;;
80508;SDS011;69838;52.602;13.434;2024-03-08T00:54:11;35.05;;;18.13;;
80508;SDS011;69838;52.602;13.434;2024-03-08T00:54:56;36.67;;;17.75;;
80508;SDS011;69838;52.602;13.434;2024-03-08T00:55:43;35.60;;;19.67;;
80508;SDS011;69838;52.602;13.434;2024-03-08T00:56:31;37.20;;;19.17;;
80508;SDS011;69838;52.602;13.434;2024-03-08T00:57:18;34.63;;;18.95;;
80508;SDS011;69838;52.602;13.434;2024-03-08T00:58:04;34.35;;;18.10;;
80508;SDS011;69838;52.602;13.434;2024-03-08T00:58:49;33.58;;;19.05;;
80508;SDS011;69838;52.602;13.434;2024-03-08T00:59:37;33.10;;;18.40;;
80508;SDS011;69838;52.602;13.434;2024-03-08T01:00:23;38.53;;;18.83;;
80508;SDS011;69838;52.602;13.434;2024-03-08T01:01:10;35.13;;;18.50;;
80508;SDS011;69838;52.602;13.434;2024-03-08T01:02:02;35.60;;;18.50;;
80508;SDS011;69838;52.602;13.434;2024-03-08T01:02:47;35.85;;;18.90;;
80508;SDS011;69838;52.602;13.434;2024-03-08T01:03:34;34.78;;;17.73;;
80508;SDS011;69838;52.602;13.434;2024-03-08T01:04:19;35.40;;;19.05;;
80508;SDS011;69838;52.602;13.434;2024-03-08T01:05:06;34.92;;;20.73;;
80508;SDS011;69838;52.602;13.434;2024-03-08T01:05:53;33.05;;;18.45;;
80508;SDS011;69838;52.602;13.434;2024-03-08T01:06:39;36.75;;;19.02;;
80508;SDS011;69838;52.602;13.434;2024-03-08T01:07:24;35.42;;;18.00;;
80508;SDS011;69838;52.602;13.434;2024-03-08T01:08:10;35.30;;;18.65;;
80508;SDS011;69838;52.602;13.434;2024-03-08T01:08:56;33.75;;;17.63;;
80508;SDS011;69838;52.602;13.434;2024-03-08T01:09:43;34.20;;;17.67;;
80508;SDS011;69838;52.602;13.434;2024-03-08T01:10:28;34.03;;;21.63;;
80508;SDS011;69838;52.602;13.434;2024-03-08T01:11:14;33.83;;;17.73;;
80508;SDS011;69838;52.602;13.434;2024-03-08T01:12:00;34.40;;;19.55;;
80508;SDS011;69838;52.602;13.434;2024-03-08T01:12:46;34.08;;;17.45;;
80508;SDS011;69838;52.602;13.434;2024-03-08T01:13:31;33.35;;;17.38;;
80508;SDS011;69838;52.602;13.434;2024-03-08T01:14:18;35.30;;;18.23;;
80508;SDS011;69838;52.602;13.434;2024-03-08T01:15:03;32.90;;;18.92;;
80508;SDS011;69838;52.602;13.434;2024-03-08T01:15:49;35.40;;;18.92;;
80508;SDS011;69838;52.602;13.434;2024-03-08T01:16:37;37.95;;;18.83;;
80508;SDS011;69838;52.602;13.434;2024-03-08T01:17:23;35.67;;;19.85;;
80508;SDS011;69838;52.602;13.434;2024-03-08T01:18:09;33.80;;;17.95;;
80508;SDS011;69838;52.602;13.434;2024-03-08T01:18:55;35.45;;;17.48;;
80508;SDS011;69838;52.602;13.434;2024-03-08T01:19:41;33.40;;;16.63;;
80508;SDS011;69838;52.602;13.434;2024-03-08T01:20:26;35.28;;;16.77;;
80508;SDS011;69838;52.602;13.434;2024-03-08T01:21:13;34.03;;;18.15;;
80508;SDS011;69838;52.602;13.434;2024-03-08T01:21:58;35.38;;;19.10;;
80508;SDS011;69838;52.602;13.434;2024-03-08T01:22:44;34.35;;;17.48;;
80508;SDS011;69838;52.602;13.434;2024-03-08T01:23:30;34.15;;;18.50;;
80508;SDS011;69838;52.602;13.434;2024-03-08T01:24:16;32.90;;;18.08;;
80508;SDS011;69838;52.602;13.434;2024-03-08T01:25:02;33.50;;;18.52;;
80508;SDS011;69838;52.602;13.434;2024-03-08T01:25:49;32.00;;;17.17;;
80508;SDS011;69838;52.602;13.434;2024-03-08T01:27:27;30.92;;;17.52;;
80508;SDS011;69838;52.602;13.434;2024-03-08T01:28:13;32.75;;;17.70;;
80508;SDS011;69838;52.602;13.434;2024-03-08T01:28:58;30.05;;;15.82;;
80508;SDS011;69838;52.602;13.434;2024-03-08T01:29:45;31.50;;;17.48;;
80508;SDS011;69838;52.602;13.434;2024-03-08T01:30:30;33.63;;;17.42;;
80508;SDS011;69838;52.602;13.434;2024-03-08T01:31:17;36.03;;;20.30;;
80508;SDS011;69838;52.602;13.434;2024-03-08T01:32:05;34.28;;;18.70;;
80508;SDS011;69838;52.602;13.434;2024-03-08T01:32:51;38.78;;;20.33;;
80508;SDS011;69838;52.602;13.434;2024-03-08T01:33:36;36.80;;;25.33;;
80508;SDS011;69838;52.602;13.434;2024-03-08T01:34:23;36.03;;;20.48;;
80508;SDS011;69838;52.602;13.434;2024-03-08T01:35:08;37.55;;;21.25;;
80508;SDS011;69838;52.602;13.434;2024-03-08T01:35:54;35.75;;;19.33;;
80508;SDS011;69838;52.602;13.434;2024-03-08T01:36:42;34.45;;;19.33;;
80508;SDS011;69838;52.602;13.434;2024-03-08T01:37:27;36.50;;;19.90;;
80508;SDS011;69838;52.602;13.434;2024-03-08T01:38:14;34.95;;;19.50;;
80508;SDS011;69838;52.602;13.434;2024-03-08T01:39:01;34.75;;;19.45;;
80508;SDS011;69838;52.602;13.434;2024-03-08T01:39:46;36.70;;;19.20;;
80508;SDS011;69838;52.602;13.434;2024-03-08T01:40:31;36.30;;;22.20;;
80508;SDS011;69838;52.602;13.434;2024-03-08T01:41:18;34.33;;;18.48;;
80508;SDS011;69838;52.602;13.434;2024-03-08T01:42:04;34.45;;;18.92;;
80508;SDS011;69838;52.602;13.434;2024-03-08T01:42:50;37.80;;;18.27;;
80508;SDS011;69838;52.602;13.434;2024-03-08T01:43:36;35.95;;;19.27;;
80508;SDS011;69838;52.602;13.434;2024-03-08T01:44:22;31.98;;;17.58;;
80508;SDS011;69838;52.602;13.434;2024-03-08T01:45:08;35.80;;;18.83;;
80508;SDS011;69838;52.602;13.434;2024-03-08T01:45:54;37.22;;;20.77;;
80508;SDS011;69838;52.602;13.434;2024-03-08T01:46:42;32.28;;;17.77;;
80508;SDS011;69838;52.602;13.434;2024-03-08T01:47:31;32.33;;;18.42;;
80508;SDS011;69838;52.602;13.434;2024-03-08T01:48:17;33.92;;;17.83;;
80508;SDS011;69838;52.602;13.434;2024-03-08T01:49:04;32.22;;;18.63;;
80508;SDS011;69838;52.602;13.434;2024-03-08T01:49:49;34.40;;;19.10;;
80508;SDS011;69838;52.602;13.434;2024-03-08T01:50:36;33.92;;;19.42;;
80508;SDS011;69838;52.602;13.434;2024-03-08T01:51:21;31.98;;;18.15;;
80508;SDS011;69838;52.602;13.434;2024-03-08T01:52:07;33.65;;;17.60;;
80508;SDS011;69838;52.602;13.434;2024-03-08T01:52:53;31.02;;;17.60;;
80508;SDS011;69838;52.602;13.434;2024-03-08T01:53:40;35.28;;;18.45;;
80508;SDS011;69838;52.602;13.434;2024-03-08T01:54:28;33.58;;;17.25;;
80508;SDS011;69838;52.602;13.434;2024-03-08T01:55:15;36.88;;;17.85;;
80508;SDS011;69838;52.602;13.434;2024-03-08T01:56:01;33.38;;;18.67;;
80508;SDS011;69838;52.602;13.434;2024-03-08T01:56:47;32.63;;;16.67;;
80508;SDS011;69838;52.602;13.434;2024-03-08T01:57:34;36.95;;;19.05;;
80508;SDS011;69838;52.602;13.434;2024-03-08T01:58:20;32.90;;;20.55;;
80508;SDS011;69838;52.602;13.434;2024-03-08T01:59:07;34.53;;;17.30;;
80508;SDS011;69838;52.602;13.434;2024-03-08T01:59:53;33.67;;;18.05;;
80508;SDS011;69838;52.602;13.434;2024-03-08T02:00:41;36.15;;;18.05;;
80508;SDS011;69838;52.602;13.434;2024-03-08T02:01:28;37.47;;;20.58;;
80508;SDS011;69838;52.602;13.434;2024-03-08T02:02:15;36.30;;;19.83;;
80508;SDS011;69838;52.602;13.434;2024-03-08T02:03:04;34.20;;;18.02;;
80508;SDS011;69838;52.602;13.434;2024-03-08T02:03:50;33.33;;;18.05;;
80508;SDS011;69838;52.602;13.434;2024-03-08T02:04:37;30.45;;;16.63;;
80508;SDS011;69838;52.602;13.434;2024-03-08T02:05:23;30.63;;;15.68;;
80508;SDS011;69838;52.602;13.434;2024-03-08T02:06:09;32.47;;;17.52;;
80508;SDS011;69838;52.602;13.434;2024-03-08T02:06:58;31.55;;;16.60;;
80508;SDS011;69838;52.602;13.434;2024-03-08T02:07:44;31.50;;;17.33;;
80508;SDS011;69838;52.602;13.434;2024-03-08T02:08:29;34.33;;;17.95;;
80508;SDS011;69838;52.602;13.434;2024-03-08T02:09:16;28.90;;;16.05;;
80508;SDS011;69838;52.602;13.434;2024-03-08T02:10:02;33.47;;;18.20;;
80508;SDS011;69838;52.602;13.434;2024-03-08T02:10:48;33.22;;;16.83;;
80508;SDS011;69838;52.602;13.434;2024-03-08T02:11:35;32.58;;;16.92;;
80508;SDS011;69838;52.602;13.434;2024-03-08T02:12:21;32.28;;;17.45;;
80508;SDS011;69838;52.602;13.434;2024-03-08T02:13:07;31.30;;;18.45;;
80508;SDS011;69838;52.602;13.434;2024-03-08T02:13:53;30.85;;;17.10;;
80508;SDS011;69838;52.602;13.434;2024-03-08T02:14:39;32.72;;;16.17;;
80508;SDS011;69838;52.602;13.434;2024-03-08T02:15:25;36.28;;;19.00;;
80508;SDS011;69838;52.602;13.434;2024-03-08T02:16:12;31.45;;;17.35;;
80508;SDS011;69838;52.602;13.434;2024-03-08T02:16:59;34.88;;;17.80;;
80508;SDS011;69838;52.602;13.434;2024-03-08T02:17:45;31.92;;;17.52;;
80508;SDS011;69838;52.602;13.434;2024-03-08T02:18:33;33.35;;;17.55;;
80508;SDS011;69838;52.602;13.434;2024-03-08T02:19:19;36.75;;;18.33;;
80508;SDS011;69838;52.602;13.434;2024-03-08T02:20:05;33.60;;;18.13;;
80508;SDS011;69838;52.602;13.434;2024-03-08T02:20:55;34.13;;;18.23;;
80508;SDS011;69838;52.602;13.434;2024-03-08T02:21:42;30.02;;;17.55;;
80508;SDS011;69838;52.602;13.434;2024-03-08T02:22:32;33.63;;;17.02;;
80508;SDS011;69838;52.602;13.434;2024-03-08T02:23:18;33.08;;;16.98;;
80508;SDS011;69838;52.602;13.434;2024-03-08T02:24:04;28.98;;;15.82;;
80508;SDS011;69838;52.602;13.434;2024-03-08T02:24:50;30.15;;;16.13;;
80508;SDS011;69838;52.602;13.434;2024-03-08T02:25:36;30.50;;;16.35;;
80508;SDS011;69838;52.602;13.434;2024-03-08T02:26:21;34.30;;;18.92;;
80508;SDS011;69838;52.602;13.434;2024-03-08T02:27:08;32.08;;;18.83;;
80508;SDS011;69838;52.602;13.434;2024-03-08T02:27:56;36.72;;;18.48;;
80508;SDS011;69838;52.602;13.434;2024-03-08T02:28:42;37.38;;;17.90;;
80508;SDS011;69838;52.602;13.434;2024-03-08T02:29:30;34.25;;;18.98;;
80508;SDS011;69838;52.602;13.434;2024-03-08T02:30:17;34.05;;;17.02;;
80508;SDS011;69838;52.602;13.434;2024-03-08T02:31:03;36.17;;;19.15;;
80508;SDS011;69838;52.602;13.434;2024-03-08T02:31:53;30.55;;;16.58;;
80508;SDS011;69838;52.602;13.434;2024-03-08T02:32:38;34.35;;;16.45;;
80508;SDS011;69838;52.602;13.434;2024-03-08T02:33:24;32.88;;;17.83;;
80508;SDS011;69838;52.602;13.434;2024-03-08T02:34:10;31.30;;;16.85;;
80508;SDS011;69838;52.602;13.434;2024-03-08T02:34:56;32.13;;;16.73;;
80508;SDS011;69838;52.602;13.434;2024-03-08T02:35:42;32.90;;;16.88;;
80508;SDS011;69838;52.602;13.434;2024-03-08T02:36:32;29.70;;;16.95;;
80508;SDS011;69838;52.602;13.434;2024-03-08T02:37:19;32.90;;;17.80;;
80508;SDS011;69838;52.602;13.434;2024-03-08T02:38:05;33.50;;;19.55;;
80508;SDS011;69838;52.602;13.434;2024-03-08T02:38:51;33.88;;;17.35;;
80508;SDS011;69838;52.602;13.434;2024-03-08T02:39:37;36.20;;;18.30;;
80508;SDS011;69838;52.602;13.434;2024-03-08T02:40:22;35.60;;;18.85;;
80508;SDS011;69838;52.602;13.434;2024-03-08T02:41:08;38.78;;;18.45;;
80508;SDS011;69838;52.602;13.434;2024-03-08T02:41:55;31.83;;;16.55;;
80508;SDS011;69838;52.602;13.434;2024-03-08T02:42:41;34.50;;;18.73;;
80508;SDS011;69838;52.602;13.434;2024-03-08T02:43:28;34.00;;;18.48;;
80508;SDS011;69838;52.602;13.434;2024-03-08T02:44:13;33.78;;;18.13;;
80508;SDS011;69838;52.602;13.434;2024-03-08T02:45:00;36.55;;;18.30;;
80508;SDS011;69838;52.602;13.434;2024-03-08T02:45:46;34.45;;;18.25;;
80508;SDS011;69838;52.602;13.434;2024-03-08T02:46:31;34.30;;;17.15;;
80508;SDS011;69838;52.602;13.434;2024-03-08T02:47:18;33.67;;;16.13;;
80508;SDS011;69838;52.602;13.434;2024-03-08T02:48:03;39.45;;;18.73;;
80508;SDS011;69838;52.602;13.434;2024-03-08T02:48:51;29.08;;;16.50;;
80508;SDS011;69838;52.602;13.434;2024-03-08T02:49:36;32.30;;;17.38;;
80508;SDS011;69838;52.602;13.434;2024-03-08T02:50:22;35.28;;;17.55;;
80508;SDS011;69838;52.602;13.434;2024-03-08T02:51:10;33.47;;;18.27;;
80508;SDS011;69838;52.602;13.434;2024-03-08T02:51:57;34.55;;;17.98;;
80508;SDS011;69838;52.602;13.434;2024-03-08T02:52:43;34.08;;;19.08;;
80508;SDS011;69838;52.602;13.434;2024-03-08T02:53:31;36.05;;;17.27;;
80508;SDS011;69838;52.602;13.434;2024-03-08T02:54:16;29.63;;;18.17;;
80508;SDS011;69838;52.602;13.434;2024-03-08T02:55:02;31.65;;;16.58;;
80508;SDS011;69838;52.602;13.434;2024-03-08T02:55:51;31.55;;;16.88;;
80508;SDS011;69838;52.602;13.434;2024-03-08T02:56:36;31.85;;;17.13;;
80508;SDS011;69838;52.602;13.434;2024-03-08T02:57:22;30.80;;;17.02;;
80508;SDS011;69838;52.602;13.434;2024-03-08T02:58:08;30.20;;;17.13;;
80508;SDS011;69838;52.602;13.434;2024-03-08T02:58:55;33.17;;;17.48;;
80508;SDS011;69838;52.602;13.434;2024-03-08T02:59:40;31.70;;;17.23;;
80508;SDS011;69838;52.602;13.434;2024-03-08T03:00:26;33.45;;;17.08;;
80508;SDS011;69838;52.602;13.434;2024-03-08T03:01:12;28.48;;;15.50;;
80508;SDS011;69838;52.602;13.434;2024-03-08T03:01:57;34.10;;;18.48;;
80508;SDS011;69838;52.602;13.434;2024-03-08T03:02:44;30.08;;;17.65;;
80508;SDS011;69838;52.602;13.434;2024-03-08T03:03:29;33.70;;;16.90;;
80508;SDS011;69838;52.602;13.434;2024-03-08T03:04:15;32.22;;;15.95;;
80508;SDS011;69838;52.602;13.434;2024-03-08T03:05:01;31.75;;;16.55;;
80508;SDS011;69838;52.602;13.434;2024-03-08T03:05:50;32.80;;;16.52;;
80508;SDS011;69838;52.602;13.434;2024-03-08T03:06:35;30.95;;;16.00;;
80508;SDS011;69838;52.602;13.434;2024-03-08T03:07:23;31.73;;;17.25;;
80508;SDS011;69838;52.602;13.434;2024-03-08T03:08:11;31.70;;;17.33;;
80508;SDS011;69838;52.602;13.434;2024-03-08T03:08:57;33.50;;;17.08;;
80508;SDS011;69838;52.602;13.434;2024-03-08T03:09:43;29.70;;;15.27;;
80508;SDS011;69838;52.602;13.434;2024-03-08T03:10:28;31.55;;;17.13;;
80508;SDS011;69838;52.602;13.434;2024-03-08T03:11:14;33.33;;;16.67;;
80508;SDS011;69838;52.602;13.434;2024-03-08T03:12:00;30.95;;;16.98;;
80508;SDS011;69838;52.602;13.434;2024-03-08T03:12:46;32.78;;;16.85;;
80508;SDS011;69838;52.602;13.434;2024-03-08T03:13:31;33.60;;;16.17;;
80508;SDS011;69838;52.602;13.434;2024-03-08T03:14:18;36.83;;;17.25;;
80508;SDS011;69838;52.602;13.434;2024-03-08T03:15:04;30.92;;;16.75;;
80508;SDS011;69838;52.602;13.434;2024-03-08T03:15:51;38.10;;;18.60;;
80508;SDS011;69838;52.602;13.434;2024-03-08T03:16:38;35.92;;;17.25;;
80508;SDS011;69838;52.602;13.434;2024-03-08T03:17:23;33.10;;;16.10;;
80508;SDS011;69838;52.602;13.434;2024-03-08T03:18:09;33.45;;;16.65;;
80508;SDS011;69838;52.602;13.434;2024-03-08T03:18:56;32.33;;;16.88;;
80508;SDS011;69838;52.602;13.434;2024-03-08T03:19:44;31.10;;;17.02;;
80508;SDS011;69838;52.602;13.434;2024-03-08T03:20:30;32.40;;;17.08;;
80508;SDS011;69838;52.602;13.434;2024-03-08T03:21:18;28.23;;;14.55;;
80508;SDS011;69838;52.602;13.434;2024-03-08T03:22:03;32.35;;;17.52;;
80508;SDS011;69838;52.602;13.434;2024-03-08T03:22:52;31.40;;;16.38;;
80508;SDS011;69838;52.602;13.434;2024-03-08T03:23:38;30.48;;;15.35;;
80508;SDS011;69838;52.602;13.434;2024-03-08T03:24:25;31.45;;;16.17;;
80508;SDS011;69838;52.602;13.434;2024-03-08T03:25:10;31.42;;;16.60;;
80508;SDS011;69838;52.602;13.434;2024-03-08T03:25:57;31.25;;;15.65;;
80508;SDS011;69838;52.602;13.434;2024-03-08T03:26:44;32.35;;;16.65;;
80508;SDS011;69838;52.602;13.434;2024-03-08T03:27:31;34.60;;;16.92;;
80508;SDS011;69838;52.602;13.434;2024-03-08T03:28:17;33.15;;;17.67;;
80508;SDS011;69838;52.602;13.434;2024-03-08T03:29:06;32.63;;;17.33;;
80508;SDS011;69838;52.602;13.434;2024-03-08T03:29:53;31.95;;;15.95;;
80508;SDS011;69838;52.602;13.434;2024-03-08T03:30:40;31.63;;;16.83;;
80508;SDS011;69838;52.602;13.434;2024-03-08T03:31:26;29.73;;;16.23;;
80508;SDS011;69838;52.602;13.434;2024-03-08T03:32:11;29.42;;;16.25;;
80508;SDS011;69838;52.602;13.434;2024-03-08T03:32:58;30.77;;;16.27;;
80508;SDS011;69838;52.602;13.434;2024-03-08T03:33:45;32.40;;;18.23;;
80508;SDS011;69838;52.602;13.434;2024-03-08T03:34:32;33.97;;;17.50;;
80508;SDS011;69838;52.602;13.434;2024-03-08T03:35:20;30.65;;;17.55;;
80508;SDS011;69838;52.602;13.434;2024-03-08T03:36:06;33.30;;;17.02;;
80508;SDS011;69838;52.602;13.434;2024-03-08T03:36:53;32.75;;;17.92;;
80508;SDS011;69838;52.602;13.434;2024-03-08T03:37:40;30.05;;;15.57;;
80508;SDS011;69838;52.602;13.434;2024-03-08T03:38:29;31.85;;;17.08;;
80508;SDS011;69838;52.602;13.434;2024-03-08T03:39:14;31.33;;;17.45;;
80508;SDS011;69838;52.602;13.434;2024-03-08T03:40:01;34.53;;;17.17;;
80508;SDS011;69838;52.602;13.434;2024-03-08T03:40:47;31.25;;;16.42;;
80508;SDS011;69838;52.602;13.434;2024-03-08T03:41:33;31.23;;;16.63;;
80508;SDS011;69838;52.602;13.434;2024-03-08T03:42:20;31.67;;;16.52;;
80508;SDS011;69838;52.602;13.434;2024-03-08T03:43:05;33.92;;;17.33;;
80508;SDS011;69838;52.602;13.434;2024-03-08T03:43:51;34.25;;;17.80;;
80508;SDS011;69838;52.602;13.434;2024-03-08T03:44:37;32.35;;;16.42;;
80508;SDS011;69838;52.602;13.434;2024-03-08T03:45:22;33.15;;;16.60;;
80508;SDS011;69838;52.602;13.434;2024-03-08T03:46:09;35.58;;;17.48;;
80508;SDS011;69838;52.602;13.434;2024-03-08T03:46:55;33.65;;;17.52;;
80508;SDS011;69838;52.602;13.434;2024-03-08T03:47:42;34.88;;;18.52;;
80508;SDS011;69838;52.602;13.434;2024-03-08T03:48:28;36.33;;;18.30;;
80508;SDS011;69838;52.602;13.434;2024-03-08T03:49:14;38.97;;;17.55;;
80508;SDS011;69838;52.602;13.434;2024-03-08T03:49:59;34.47;;;18.38;;
80508;SDS011;69838;52.602;13.434;2024-03-08T03:50:48;34.45;;;18.23;;
80508;SDS011;69838;52.602;13.434;2024-03-08T03:51:35;33.50;;;17.77;;
80508;SDS011;69838;52.602;13.434;2024-03-08T03:52:20;35.10;;;17.83;;
80508;SDS011;69838;52.602;13.434;2024-03-08T03:53:07;33.03;;;16.63;;
80508;SDS011;69838;52.602;13.434;2024-03-08T03:53:54;33.58;;;17.92;;
80508;SDS011;69838;52.602;13.434;2024-03-08T03:54:42;33.55;;;17.90;;
80508;SDS011;69838;52.602;13.434;2024-03-08T03:55:28;35.58;;;19.42;;
80508;SDS011;69838;52.602;13.434;2024-03-08T03:56:13;37.88;;;18.70;;
80508;SDS011;69838;52.602;13.434;2024-03-08T03:57:00;36.42;;;20.08;;
80508;SDS011;69838;52.602;13.434;2024-03-08T03:57:45;30.27;;;17.73;;
80508;SDS011;69838;52.602;13.434;2024-03-08T03:58:31;33.28;;;17.42;;
80508;SDS011;69838;52.602;13.434;2024-03-08T03:59:17;33.55;;;16.75;;
80508;SDS011;69838;52.602;13.434;2024-03-08T04:00:04;33.13;;;18.13;;
80508;SDS011;69838;52.602;13.434;2024-03-08T04:00:51;36.47;;;19.27;;
80508;SDS011;69838;52.602;13.434;2024-03-08T04:01:41;36.63;;;18.00;;
80508;SDS011;69838;52.602;13.434;2024-03-08T04:02:27;32.33;;;17.58;;
80508;SDS011;69838;52.602;13.434;2024-03-08T04:03:13;34.72;;;19.85;;
80508;SDS011;69838;52.602;13.434;2024-03-08T04:03:58;35.22;;;17.95;;
80508;SDS011;69838;52.602;13.434;2024-03-08T04:04:44;37.75;;;18.02;;
80508;SDS011;69838;52.602;13.434;2024-03-08T04:05:31;33.97;;;16.63;;
80508;SDS011;69838;52.602;13.434;2024-03-08T04:06:16;37.83;;;20.05;;
80508;SDS011;69838;52.602;13.434;2024-03-08T04:07:02;34.33;;;18.13;;
80508;SDS011;69838;52.602;13.434;2024-03-08T04:07:48;39.35;;;19.08;;
80508;SDS011;69838;52.602;13.434;2024-03-08T04:08:34;37.00;;;17.48;;
80508;SDS011;69838;52.602;13.434;2024-03-08T04:09:20;34.25;;;17.75;;
80508;SDS011;69838;52.602;13.434;2024-03-08T04:10:08;36.70;;;19.65;;
80508;SDS011;69838;52.602;13.434;2024-03-08T04:10:54;35.15;;;18.50;;
80508;SDS011;69838;52.602;13.434;2024-03-08T04:11:39;35.42;;;17.67;;
80508;SDS011;69838;52.602;13.434;2024-03-08T04:12:25;35.22;;;19.42;;
80508;SDS011;69838;52.602;13.434;2024-03-08T04:13:11;35.30;;;18.77;;
80508;SDS011;69838;52.602;13.434;2024-03-08T04:13:57;40.60;;;19.25;;
80508;SDS011;69838;52.602;13.434;2024-03-08T04:14:43;34.78;;;17.80;;
80508;SDS011;69838;52.602;13.434;2024-03-08T04:15:29;37.53;;;19.67;;
80508;SDS011;69838;52.602;13.434;2024-03-08T04:16:15;37.78;;;19.88;;
80508;SDS011;69838;52.602;13.434;2024-03-08T04:17:03;33.22;;;16.77;;
80508;SDS011;69838;52.602;13.434;2024-03-08T04:17:48;36.00;;;18.92;;
80508;SDS011;69838;52.602;13.434;2024-03-08T04:18:34;35.78;;;17.00;;
80508;SDS011;69838;52.602;13.434;2024-03-08T04:19:21;34.72;;;18.02;;
80508;SDS011;69838;52.602;13.434;2024-03-08T04:20:06;35.50;;;17.75;;
80508;SDS011;69838;52.602;13.434;2024-03-08T04:20:54;37.83;;;18.02;;
80508;SDS011;69838;52.602;13.434;2024-03-08T04:21:41;35.90;;;18.20;;
80508;SDS011;69838;52.602;13.434;2024-03-08T04:22:27;39.38;;;19.52;;
80508;SDS011;69838;52.602;13.434;2024-03-08T04:23:13;39.00;;;20.63;;
80508;SDS011;69838;52.602;13.434;2024-03-08T04:24:00;32.42;;;17.30;;
80508;SDS011;69838;52.602;13.434;2024-03-08T04:24:47;35.22;;;18.83;;
80508;SDS011;69838;52.602;13.434;2024-03-08T04:25:33;36.28;;;19.35;;
80508;SDS011;69838;52.602;13.434;2024-03-08T04:26:19;37.03;;;19.08;;
80508;SDS011;69838;52.602;13.434;2024-03-08T04:27:04;38.75;;;18.38;;
80508;SDS011;69838;52.602;13.434;2024-03-08T04:27:50;38.58;;;18.55;;